createdAt,value
2018-03-01T00:00:23.765Z,101401.27
2018-03-01T00:02:52.141Z,101406.99
2018-03-01T00:05:20.518Z,101406.51
2018-03-01T00:07:48.862Z,101404.02
2018-03-01T00:10:17.278Z,101392.21
2018-03-01T00:12:45.634Z,101392.66
2018-03-01T00:15:13.955Z,101389.95
2018-03-01T00:17:42.406Z,101380.77
2018-03-01T00:20:10.791Z,101373.64
2018-03-01T00:22:39.136Z,101381.00
2018-03-01T00:25:07.460Z,101373.59
2018-03-01T00:27:35.807Z,101367.69
2018-03-01T00:30:04.129Z,101362.10
2018-03-01T00:32:32.485Z,101357.36
2018-03-01T00:35:00.842Z,101365.78
2018-03-01T00:37:29.221Z,101360.64
2018-03-01T00:39:57.565Z,101359.48
2018-03-01T00:42:25.962Z,101351.46
2018-03-01T00:44:54.310Z,101355.33
2018-03-01T00:47:22.735Z,101351.69
2018-03-01T00:49:51.070Z,101352.13
2018-03-01T00:52:19.397Z,101348.76
2018-03-01T00:54:47.763Z,101351.55
2018-03-01T00:57:16.086Z,101346.64
2018-03-01T00:59:44.442Z,101349.03
2018-03-01T01:02:12.762Z,101339.09
2018-03-01T01:04:41.108Z,101350.17
2018-03-01T01:07:09.435Z,101342.23
2018-03-01T01:09:37.814Z,101336.51
2018-03-01T01:12:06.138Z,101337.35
2018-03-01T01:14:34.570Z,101334.82
2018-03-01T01:17:02.895Z,101343.92
2018-03-01T01:19:31.241Z,101348.14
2018-03-01T01:21:59.598Z,101354.55
2018-03-01T01:24:27.942Z,101345.78
2018-03-01T01:26:56.266Z,101342.85
2018-03-01T01:29:24.633Z,101335.49
2018-03-01T01:31:52.958Z,101326.89
2018-03-01T01:34:21.298Z,101310.22
2018-03-01T01:36:49.662Z,101309.09
2018-03-01T01:39:18.014Z,101313.58
2018-03-01T01:41:46.415Z,101315.05
2018-03-01T01:44:14.766Z,101300.94
2018-03-01T01:46:43.170Z,101315.35
2018-03-01T01:49:11.523Z,101308.44
2018-03-01T01:51:39.925Z,101306.83
2018-03-01T01:54:08.308Z,101302.80
2018-03-01T01:56:36.678Z,101295.66
2018-03-01T01:59:05.062Z,101309.30
2018-03-01T02:01:33.386Z,101295.86
2018-03-01T02:04:01.732Z,101287.70
2018-03-01T02:06:30.058Z,101293.10
2018-03-01T02:08:58.405Z,101291.33
2018-03-01T02:11:26.730Z,101286.73
2018-03-01T02:13:55.078Z,101288.78
2018-03-01T02:16:23.407Z,101286.25
2018-03-01T02:18:51.754Z,101270.98
2018-03-01T02:21:20.246Z,101265.88
2018-03-01T02:23:48.628Z,101253.62
2018-03-01T02:26:16.954Z,101249.48
2018-03-01T02:28:45.300Z,101253.85
2018-03-01T02:31:13.624Z,101257.03
2018-03-01T02:33:41.966Z,101258.77
2018-03-01T02:36:10.310Z,101247.83
2018-03-01T02:38:38.664Z,101255.59
2018-03-01T02:41:07.062Z,101260.46
2018-03-01T02:43:35.443Z,101263.55
2018-03-01T02:46:03.786Z,101260.70
2018-03-01T02:48:32.139Z,101267.78
2018-03-01T02:51:00.565Z,101264.88
2018-03-01T02:53:28.895Z,101273.77
2018-03-01T02:55:57.242Z,101259.89
2018-03-01T02:58:25.595Z,101251.05
2018-03-01T03:00:53.930Z,101256.19
2018-03-01T03:03:22.251Z,101247.59
2018-03-01T03:05:50.594Z,101234.92
2018-03-01T03:08:19.007Z,101228.05
2018-03-01T03:10:47.382Z,101223.14
2018-03-01T03:13:15.754Z,101222.82
2018-03-01T03:15:44.137Z,101214.45
2018-03-01T03:18:12.514Z,101211.16
2018-03-01T03:20:40.895Z,101214.89
2018-03-01T03:23:09.273Z,101204.56
2018-03-01T03:25:37.654Z,101213.29
2018-03-01T03:28:06.038Z,101201.11
2018-03-01T03:30:34.374Z,101184.73
2018-03-01T03:33:02.697Z,101187.64
2018-03-01T03:35:31.058Z,101179.28
2018-03-01T03:37:59.377Z,101173.94
2018-03-01T03:40:27.810Z,101167.86
2018-03-01T03:42:56.186Z,101167.54
2018-03-01T03:45:24.567Z,101164.05
2018-03-01T03:47:52.894Z,101135.98
2018-03-01T03:50:21.334Z,101155.53
2018-03-01T03:52:49.697Z,101146.32
2018-03-01T03:55:18.042Z,101158.63
2018-03-01T03:57:46.459Z,101148.81
2018-03-01T04:00:14.796Z,101143.30
2018-03-01T04:02:43.206Z,101139.81
2018-03-01T04:05:11.557Z,101137.84
2018-03-01T04:07:39.887Z,101131.42
2018-03-01T04:10:08.338Z,101131.78
2018-03-01T04:12:36.667Z,101129.13
2018-03-01T04:15:05.014Z,101125.31
2018-03-01T04:17:33.333Z,101119.00
2018-03-01T04:20:01.678Z,101121.77
2018-03-01T04:22:30.002Z,101122.41
2018-03-01T04:24:58.350Z,101113.12
2018-03-01T04:27:26.674Z,101110.80
2018-03-01T04:29:55.018Z,101115.90
2018-03-01T04:32:23.341Z,101102.44
2018-03-01T04:34:51.686Z,101100.19
2018-03-01T04:37:20.078Z,101098.66
2018-03-01T04:39:48.422Z,101104.65
2018-03-01T04:42:16.841Z,101098.50
2018-03-01T04:44:45.166Z,101090.58
2018-03-01T04:47:13.587Z,101091.11
2018-03-01T04:49:41.910Z,101090.86
2018-03-01T04:52:10.346Z,101085.68
2018-03-01T04:54:38.722Z,101093.31
2018-03-01T04:57:07.066Z,101090.95
2018-03-01T04:59:35.385Z,101088.70
2018-03-01T05:02:03.730Z,101088.94
2018-03-01T05:04:32.061Z,101088.09
2018-03-01T05:07:00.406Z,101079.70
2018-03-01T05:09:28.730Z,101075.84
2018-03-01T05:11:57.162Z,101079.81
2018-03-01T05:14:25.533Z,101071.55
2018-03-01T05:16:53.878Z,101069.65
2018-03-01T05:19:22.285Z,101061.34
2018-03-01T05:21:50.633Z,101056.28
2018-03-01T05:24:18.961Z,101062.47
2018-03-01T05:26:47.310Z,101055.77
2018-03-01T05:29:15.640Z,101065.38
2018-03-01T05:31:44.074Z,101056.61
2018-03-01T05:34:12.403Z,101050.98
2018-03-01T05:36:40.829Z,101053.56
2018-03-01T05:39:09.154Z,101049.55
2018-03-01T05:41:37.506Z,101055.16
2018-03-01T05:44:05.834Z,101062.64
2018-03-01T05:46:34.190Z,101068.31
2018-03-01T05:49:02.526Z,101066.45
2018-03-01T05:51:30.881Z,101057.89
2018-03-01T05:53:59.198Z,101054.80
2018-03-01T05:56:27.582Z,101048.30
2018-03-01T05:58:55.910Z,101054.36
2018-03-01T06:01:24.835Z,101046.38
2018-03-01T06:03:53.240Z,101044.92
2018-03-01T06:06:21.671Z,101054.53
2018-03-01T06:08:50.046Z,101035.69
2018-03-01T06:11:18.422Z,101046.13
2018-03-01T06:13:46.850Z,101058.91
2018-03-01T06:16:15.189Z,101058.39
2018-03-01T06:18:43.582Z,101069.92
2018-03-01T06:21:11.934Z,101066.49
2018-03-01T06:23:40.262Z,101074.20
2018-03-01T06:26:09.574Z,101068.95
2018-03-01T06:28:37.982Z,101070.12
2018-03-01T06:31:06.360Z,101076.42
2018-03-01T06:33:34.738Z,101078.07
2018-03-01T06:36:03.114Z,101077.59
2018-03-01T06:38:31.450Z,101073.28
2018-03-01T06:40:59.874Z,101064.41
2018-03-01T06:43:28.250Z,101067.10
2018-03-01T06:45:57.088Z,101056.78
2018-03-01T06:48:27.206Z,101059.55
2018-03-01T06:50:55.584Z,101060.88
2018-03-01T06:53:24.110Z,101068.27
2018-03-01T06:55:52.447Z,101061.52
2018-03-01T06:58:20.807Z,101058.70
2018-03-01T07:00:49.249Z,101052.96
2018-03-01T07:03:17.595Z,101050.31
2018-03-01T07:05:45.934Z,101055.30
2018-03-01T07:08:14.283Z,101048.38
2018-03-01T07:10:42.615Z,101050.51
2018-03-01T07:13:11.030Z,101048.00
2018-03-01T07:15:39.362Z,101045.39
2018-03-01T07:18:07.718Z,101042.22
2018-03-01T07:20:36.042Z,101027.20
2018-03-01T07:23:04.437Z,101029.12
2018-03-01T07:25:32.770Z,101019.27
2018-03-01T07:28:01.191Z,101013.77
2018-03-01T07:30:29.522Z,101014.99
2018-03-01T07:32:57.879Z,101017.23
2018-03-01T07:35:26.198Z,101020.91
2018-03-01T07:37:54.556Z,101036.97
2018-03-01T07:40:22.882Z,101041.23
2018-03-01T07:42:51.248Z,101032.16
2018-03-01T07:45:19.582Z,101026.46
2018-03-01T07:47:47.925Z,101027.05
2018-03-01T07:50:16.262Z,101032.09
2018-03-01T07:52:44.655Z,101032.94
2018-03-01T07:55:13.032Z,101028.45
2018-03-01T07:57:41.394Z,101015.17
2018-03-01T08:00:09.786Z,101019.44
2018-03-01T08:02:38.139Z,101036.94
2018-03-01T08:05:07.067Z,101019.95
2018-03-01T08:07:35.410Z,101013.80
2018-03-01T08:10:03.745Z,101014.25
2018-03-01T08:12:32.090Z,101017.33
2018-03-01T08:15:00.424Z,101004.46
2018-03-01T08:17:28.773Z,100994.67
2018-03-01T08:19:57.093Z,101010.27
2018-03-01T08:22:25.577Z,101016.77
2018-03-01T08:24:54.617Z,101006.20
2018-03-01T08:27:22.973Z,100996.63
2018-03-01T08:29:51.394Z,101014.31
2018-03-01T08:32:20.017Z,101017.59
2018-03-01T08:34:48.658Z,101018.82
2018-03-01T08:37:18.797Z,101016.18
2018-03-01T08:39:48.279Z,101016.89
2018-03-01T08:42:17.681Z,101017.53
2018-03-01T08:44:46.054Z,101010.21
2018-03-01T08:47:14.407Z,100994.76
2018-03-01T08:49:42.750Z,100991.97
2018-03-01T08:52:11.134Z,100977.46
2018-03-01T08:54:39.509Z,100988.38
2018-03-01T08:57:07.878Z,100972.31
2018-03-01T08:59:36.213Z,100971.42
2018-03-01T09:02:04.677Z,100960.81
2018-03-01T09:04:33.153Z,100966.53
2018-03-01T09:07:01.551Z,100968.83
2018-03-01T09:09:30.389Z,100956.11
2018-03-01T09:11:58.769Z,100957.90
2018-03-01T09:14:27.134Z,100956.42
2018-03-01T09:16:55.523Z,100941.39
2018-03-01T09:19:23.941Z,100940.64
2018-03-01T09:21:52.228Z,100927.17
2018-03-01T09:24:20.569Z,100926.61
2018-03-01T09:26:48.894Z,100934.34
2018-03-01T09:29:17.310Z,100924.61
2018-03-01T09:31:45.685Z,100906.03
2018-03-01T09:34:14.038Z,100896.50
2018-03-01T09:36:42.371Z,100908.58
2018-03-01T09:39:10.754Z,100910.52
2018-03-01T09:41:39.258Z,100883.14
2018-03-01T09:44:07.741Z,100887.80
2018-03-01T09:46:49.825Z,100878.91
2018-03-01T09:49:19.026Z,100884.09
2018-03-01T09:51:47.374Z,100882.86
2018-03-01T09:54:15.889Z,100894.95
2018-03-01T09:56:45.534Z,100873.74
2018-03-01T09:59:15.719Z,100868.58
2018-03-01T10:01:44.290Z,100879.10
2018-03-01T10:04:14.417Z,100871.42
2018-03-01T10:06:43.077Z,100848.52
2018-03-01T10:09:11.888Z,100856.09
2018-03-01T10:11:40.314Z,100861.52
2018-03-01T10:14:08.714Z,100835.75
2018-03-01T10:16:37.038Z,100853.69
2018-03-01T10:19:05.434Z,100841.36
2018-03-01T10:21:33.758Z,100832.22
2018-03-01T10:24:02.205Z,100839.99
2018-03-01T10:26:30.637Z,100833.93
2018-03-01T10:28:59.080Z,100851.91
2018-03-01T10:31:27.491Z,100844.09
2018-03-01T10:33:55.924Z,100835.73
2018-03-01T10:36:24.246Z,100835.68
2018-03-01T10:38:52.594Z,100837.80
2018-03-01T10:41:20.932Z,100833.19
2018-03-01T10:43:49.335Z,100823.84
2018-03-01T10:46:18.726Z,100818.31
2018-03-01T10:48:47.112Z,100823.41
2018-03-01T10:51:15.486Z,100819.26
2018-03-01T10:53:43.842Z,100829.84
2018-03-01T10:56:13.119Z,100824.58
2018-03-01T10:58:41.647Z,100818.31
2018-03-01T11:01:15.549Z,100808.98
2018-03-01T11:03:44.093Z,100817.02
2018-03-01T11:06:12.488Z,100806.77
2018-03-01T11:08:41.206Z,100794.44
2018-03-01T11:11:09.530Z,100792.95
2018-03-01T11:13:37.882Z,100784.25
2018-03-01T11:16:06.226Z,100762.39
2018-03-01T11:18:34.586Z,100771.36
2018-03-01T11:21:02.915Z,100754.56
2018-03-01T11:23:31.242Z,100749.11
2018-03-01T11:25:59.642Z,100737.88
2018-03-01T11:28:27.974Z,100743.31
2018-03-01T11:30:56.353Z,100735.83
2018-03-01T11:33:24.719Z,100741.25
2018-03-01T11:35:53.094Z,100730.19
2018-03-01T11:38:21.394Z,100727.18
2018-03-01T11:40:49.753Z,100724.87
2018-03-01T11:43:18.182Z,100720.72
2018-03-01T11:45:46.547Z,100721.98
2018-03-01T11:48:14.863Z,100700.73
2018-03-01T11:50:43.259Z,100696.98
2018-03-01T11:53:11.578Z,100692.10
2018-03-01T11:55:39.958Z,100688.14
2018-03-01T11:58:08.289Z,100671.93
2018-03-01T12:00:36.638Z,100682.43
2018-03-01T12:03:04.981Z,100683.14
2018-03-01T12:05:33.326Z,100681.58
2018-03-01T12:08:01.662Z,100672.66
2018-03-01T12:10:30.039Z,100669.36
2018-03-01T12:12:58.358Z,100653.27
2018-03-01T12:15:26.745Z,100656.52
2018-03-01T12:17:56.078Z,100658.89
2018-03-01T12:20:24.509Z,100657.69
2018-03-01T12:22:52.861Z,100636.34
2018-03-01T12:25:21.218Z,100651.21
2018-03-01T12:27:49.546Z,100658.91
2018-03-01T12:30:17.893Z,100657.17
2018-03-01T12:32:46.218Z,100655.70
2018-03-01T12:35:14.571Z,100629.70
2018-03-01T12:37:43.018Z,100616.77
2018-03-01T12:40:11.470Z,100625.80
2018-03-01T12:42:39.942Z,100620.64
2018-03-01T12:45:08.286Z,100616.36
2018-03-01T12:47:36.710Z,100620.86
2018-03-01T12:50:05.348Z,100613.59
2018-03-01T12:52:33.822Z,100618.71
2018-03-01T12:55:02.199Z,100617.80
2018-03-01T12:57:30.535Z,100636.79
2018-03-01T12:59:58.882Z,100621.72
2018-03-01T13:02:27.210Z,100620.09
2018-03-01T13:04:57.473Z,100620.91
2018-03-01T13:07:25.813Z,100621.03
2018-03-01T13:09:54.152Z,100624.99
2018-03-01T13:12:22.473Z,100623.67
2018-03-01T13:14:50.826Z,100620.78
2018-03-01T13:17:19.955Z,100618.57
2018-03-01T13:19:48.314Z,100605.25
2018-03-01T13:22:16.858Z,100604.28
2018-03-01T13:24:45.203Z,100613.43
2018-03-01T13:27:13.718Z,100608.38
2018-03-01T13:29:42.087Z,100615.82
2018-03-01T13:32:10.785Z,100609.81
2018-03-01T13:34:43.310Z,100607.61
2018-03-01T13:37:11.658Z,100601.49
2018-03-01T13:39:52.014Z,100598.01
2018-03-01T13:45:20.619Z,100613.05
2018-03-01T13:47:48.954Z,100597.09
2018-03-01T13:50:17.302Z,100598.05
2018-03-01T13:52:45.635Z,100581.70
2018-03-01T13:55:13.982Z,100576.17
2018-03-01T13:57:42.311Z,100578.83
2018-03-01T14:00:10.658Z,100561.97
2018-03-01T14:02:38.985Z,100564.15
2018-03-01T14:05:07.366Z,100575.91
2018-03-01T14:07:37.558Z,100555.16
2018-03-01T14:10:06.480Z,100555.66
2018-03-01T14:12:38.975Z,100550.56
2018-03-01T14:15:10.702Z,100558.20
2018-03-01T14:20:47.853Z,100550.92
2018-03-01T14:23:18.665Z,100551.81
2018-03-01T14:25:48.445Z,100546.59
2018-03-01T14:28:22.505Z,100553.06
2018-03-01T14:30:50.976Z,100549.53
2018-03-01T14:33:19.297Z,100540.02
2018-03-01T14:35:47.759Z,100529.70
2018-03-01T14:38:16.074Z,100508.06
2018-03-01T14:40:44.474Z,100512.75
2018-03-01T14:43:12.878Z,100508.47
2018-03-01T14:45:41.252Z,100515.44
2018-03-01T14:48:10.574Z,100501.59
2018-03-01T14:50:38.934Z,100508.58
2018-03-01T14:53:07.331Z,100493.11
2018-03-01T14:55:36.069Z,100488.81
2018-03-01T14:58:04.684Z,100489.62
2018-03-01T15:00:33.315Z,100483.98
2018-03-01T15:03:01.745Z,100467.88
2018-03-01T15:05:30.197Z,100478.70
2018-03-01T15:07:58.573Z,100473.09
2018-03-01T15:10:26.985Z,100476.98
2018-03-01T15:12:55.322Z,100480.84
2018-03-01T15:15:23.916Z,100473.42
2018-03-01T15:17:52.293Z,100472.56
2018-03-01T15:20:20.634Z,100470.47
2018-03-01T15:22:49.008Z,100460.43
2018-03-01T15:25:17.395Z,100468.05
2018-03-01T15:27:45.769Z,100468.09
2018-03-01T15:30:14.144Z,100478.82
2018-03-01T15:32:42.491Z,100470.17
2018-03-01T15:35:10.919Z,100465.35
2018-03-01T15:37:39.274Z,100464.02
2018-03-01T15:40:07.625Z,100461.95
2018-03-01T15:42:35.970Z,100452.41
2018-03-01T15:45:04.339Z,100456.22
2018-03-01T15:47:32.716Z,100457.47
2018-03-01T15:50:01.105Z,100456.12
2018-03-01T15:52:29.461Z,100458.25
2018-03-01T15:54:57.810Z,100454.37
2018-03-01T15:57:26.193Z,100457.84
2018-03-01T15:59:54.563Z,100456.88
2018-03-01T16:02:22.914Z,100444.31
2018-03-01T16:04:51.270Z,100433.13
2018-03-01T16:07:19.756Z,100430.05
2018-03-01T16:09:48.125Z,100426.52
2018-03-01T16:12:16.495Z,100430.42
2018-03-01T16:14:44.851Z,100425.60
2018-03-01T16:17:13.337Z,100422.98
2018-03-01T16:19:41.758Z,100413.11
2018-03-01T16:22:10.178Z,100411.73
2018-03-01T16:24:38.533Z,100412.56
2018-03-01T16:27:06.951Z,100400.43
2018-03-01T16:29:35.325Z,100400.78
2018-03-01T16:32:03.683Z,100405.92
2018-03-01T16:34:32.017Z,100402.90
2018-03-01T16:37:00.406Z,100399.79
2018-03-01T16:39:28.739Z,100398.45
2018-03-01T16:41:57.095Z,100386.36
2018-03-01T16:44:25.427Z,100381.16
2018-03-01T16:46:54.021Z,100367.28
2018-03-01T16:49:22.354Z,100388.02
2018-03-01T16:51:50.717Z,100391.01
2018-03-01T16:54:19.181Z,100402.16
2018-03-01T16:56:48.483Z,100402.63
2018-03-01T16:59:16.798Z,100392.22
2018-03-01T17:01:45.125Z,100400.79
2018-03-01T17:04:13.663Z,100414.09
2018-03-01T17:06:42.002Z,100397.66
2018-03-01T17:09:10.354Z,100414.94
2018-03-01T17:11:43.334Z,100389.39
2018-03-01T17:14:11.683Z,100392.39
2018-03-01T17:16:40.019Z,100388.88
2018-03-01T17:19:08.374Z,100387.94
2018-03-01T17:21:36.698Z,100395.30
2018-03-01T17:24:05.048Z,100377.61
2018-03-01T17:26:34.361Z,100385.41
2018-03-01T17:29:02.733Z,100382.33
2018-03-01T17:31:31.071Z,100387.14
2018-03-01T17:33:59.419Z,100397.01
2018-03-01T17:36:28.638Z,100400.35
2018-03-01T17:38:56.994Z,100401.25
2018-03-01T17:41:25.456Z,100399.45
2018-03-01T17:43:53.850Z,100399.91
2018-03-01T17:46:22.169Z,100400.72
2018-03-01T17:48:50.525Z,100407.14
2018-03-01T17:51:18.846Z,100394.68
2018-03-01T17:53:47.311Z,100399.70
2018-03-01T17:56:15.719Z,100400.07
2018-03-01T17:58:44.070Z,100395.36
2018-03-01T18:01:12.536Z,100391.09
2018-03-01T18:03:40.921Z,100387.19
2018-03-01T18:06:09.351Z,100397.98
2018-03-01T18:08:37.838Z,100378.58
2018-03-01T18:11:06.164Z,100381.08
2018-03-01T18:13:34.576Z,100372.42
2018-03-01T18:16:03.079Z,100383.53
2018-03-01T18:18:31.421Z,100372.86
2018-03-01T18:20:59.748Z,100374.11
2018-03-01T18:23:28.201Z,100373.16
2018-03-01T18:25:57.259Z,100380.14
2018-03-01T18:28:26.645Z,100377.94
2018-03-01T18:30:54.997Z,100387.34
2018-03-01T18:33:23.480Z,100382.98
2018-03-01T18:35:51.799Z,100389.48
2018-03-01T18:38:20.214Z,100412.30
2018-03-01T18:40:48.663Z,100395.84
2018-03-01T18:43:17.026Z,100379.96
2018-03-01T18:45:45.359Z,100385.19
2018-03-01T18:48:13.743Z,100394.61
2018-03-01T18:50:42.127Z,100393.30
2018-03-01T18:53:10.466Z,100389.91
2018-03-01T18:55:38.822Z,100391.19
2018-03-01T18:58:07.235Z,100396.75
2018-03-01T19:00:35.596Z,100399.83
2018-03-01T19:03:03.946Z,100396.75
2018-03-01T19:05:32.303Z,100397.20
2018-03-01T19:08:01.284Z,100393.66
2018-03-01T19:10:29.727Z,100393.34
2018-03-01T19:12:58.077Z,100387.98
2018-03-01T19:15:26.926Z,100388.84
2018-03-01T19:17:55.274Z,100390.16
2018-03-01T19:20:23.730Z,100390.25
2018-03-01T19:22:52.067Z,100391.00
2018-03-01T19:25:20.487Z,100390.84
2018-03-01T19:27:48.945Z,100383.55
2018-03-01T19:30:17.334Z,100375.69
2018-03-01T19:32:45.657Z,100370.17
2018-03-01T19:35:14.011Z,100370.88
2018-03-01T19:37:42.397Z,100369.82
2018-03-01T19:40:10.741Z,100374.58
2018-03-01T19:42:39.086Z,100369.70
2018-03-01T19:45:07.514Z,100359.28
2018-03-01T19:47:35.849Z,100357.50
2018-03-01T19:50:04.193Z,100370.33
2018-03-01T19:52:32.522Z,100354.55
2018-03-01T19:55:00.906Z,100355.22
2018-03-01T19:57:29.279Z,100347.15
2018-03-01T19:59:57.641Z,100352.20
2018-03-01T20:02:26.034Z,100349.23
2018-03-01T20:04:54.387Z,100352.20
2018-03-01T20:07:22.718Z,100351.75
2018-03-01T20:09:52.358Z,100354.84
2018-03-01T20:12:20.723Z,100347.09
2018-03-01T20:14:49.155Z,100352.25
2018-03-01T20:17:17.482Z,100348.73
2018-03-01T20:19:45.846Z,100349.72
2018-03-01T20:22:14.209Z,100352.69
2018-03-01T20:24:42.555Z,100350.00
2018-03-01T20:27:10.934Z,100352.86
2018-03-01T20:29:39.348Z,100349.44
2018-03-01T20:32:07.724Z,100349.52
2018-03-01T20:34:36.169Z,100345.22
2018-03-01T20:37:04.501Z,100346.47
2018-03-01T20:39:32.860Z,100344.30
2018-03-01T20:42:01.295Z,100347.75
2018-03-01T20:44:29.618Z,100353.83
2018-03-01T20:46:57.954Z,100346.03
2018-03-01T20:49:26.324Z,100347.76
2018-03-01T20:51:54.703Z,100339.72
2018-03-01T20:54:23.094Z,100334.02
2018-03-01T20:56:51.538Z,100328.97
2018-03-01T20:59:20.222Z,100342.16
2018-03-01T21:01:49.566Z,100334.95
2018-03-01T21:04:17.923Z,100320.94
2018-03-01T21:06:47.207Z,100321.53
2018-03-01T21:09:15.592Z,100320.11
2018-03-01T21:11:43.920Z,100321.84
2018-03-01T21:14:12.278Z,100311.17
2018-03-01T21:16:40.810Z,100321.92
2018-03-01T21:19:09.133Z,100313.62
2018-03-01T21:21:37.483Z,100313.20
2018-03-01T21:24:05.827Z,100301.05
2018-03-01T21:26:34.280Z,100296.76
2018-03-01T21:29:02.737Z,100298.91
2018-03-01T21:31:32.583Z,100302.19
2018-03-01T21:34:01.063Z,100291.09
2018-03-01T21:36:29.601Z,100279.45
2018-03-01T21:38:58.021Z,100278.44
2018-03-01T21:41:26.454Z,100268.17
2018-03-01T21:43:54.826Z,100263.30
2018-03-01T21:46:23.170Z,100263.36
2018-03-01T21:48:51.505Z,100267.93
2018-03-01T21:51:19.962Z,100257.63
2018-03-01T21:53:48.285Z,100258.84
2018-03-01T21:56:16.711Z,100252.85
2018-03-01T21:58:46.003Z,100253.28
2018-03-01T22:01:14.623Z,100259.71
2018-03-01T22:03:43.086Z,100257.83
2018-03-01T22:06:11.428Z,100259.77
2018-03-01T22:08:39.838Z,100244.52
2018-03-01T22:11:08.213Z,100243.67
2018-03-01T22:13:36.639Z,100241.92
2018-03-01T22:16:05.058Z,100244.11
2018-03-01T22:18:33.490Z,100247.44
2018-03-01T22:21:01.843Z,100240.58
2018-03-01T22:23:30.168Z,100249.55
2018-03-01T22:25:58.542Z,100246.27
2018-03-01T22:28:26.874Z,100240.58
2018-03-01T22:30:55.323Z,100250.30
2018-03-01T22:33:23.626Z,100236.87
2018-03-01T22:35:51.974Z,100238.98
2018-03-01T22:38:21.331Z,100244.41
2018-03-01T22:40:49.803Z,100239.15
2018-03-01T22:43:18.442Z,100236.53
2018-03-01T22:45:46.777Z,100233.83
2018-03-01T22:48:15.201Z,100233.13
2018-03-01T22:50:43.581Z,100237.11
2018-03-01T22:53:11.902Z,100227.42
2018-03-01T22:55:40.254Z,100226.62
2018-03-01T22:58:08.606Z,100232.38
2018-03-01T23:00:48.853Z,100222.38
2018-03-01T23:03:17.178Z,100223.95
2018-03-01T23:05:45.618Z,100213.71
2018-03-01T23:08:14.701Z,100207.63
2018-03-01T23:10:43.126Z,100212.34
2018-03-01T23:13:11.450Z,100206.00
2018-03-01T23:15:39.796Z,100213.55
2018-03-01T23:18:08.124Z,100204.34
2018-03-01T23:20:36.474Z,100195.82
2018-03-01T23:23:04.798Z,100191.41
2018-03-01T23:25:33.249Z,100196.94
2018-03-01T23:28:01.622Z,100197.38
2018-03-01T23:30:29.966Z,100183.09
2018-03-01T23:32:58.291Z,100197.70
2018-03-01T23:35:26.637Z,100189.45
2018-03-01T23:37:54.966Z,100176.84
2018-03-01T23:40:23.294Z,100181.63
2018-03-01T23:42:51.682Z,100184.55
2018-03-01T23:45:20.053Z,100181.19
2018-03-01T23:47:48.405Z,100183.44
2018-03-01T23:50:16.726Z,100177.83
2018-03-01T23:52:45.089Z,100179.08
2018-03-01T23:55:13.415Z,100163.15
2018-03-01T23:57:41.842Z,100166.64
